Portada
METAR-TAF:

METAR-TAF

Aeroports :

Lynchburg Regional Airport (Preston Glenn Field)

Lynchburg, Virgínia, Estats Units d'Amèrica

latitud: 37-19-15N, longitud: 079-12-24W, altitud: 285 m

Observació

L'informe es va fer fa 46 minuts, a les 21:54 UTC
Vent calma
Temperatura 1°C
Humitat 34%
Pressió 1028 hPa
Visibilitat: 16.1 km
Cel clar

METAR: KLYH 132154Z 00000KT 10SM CLR 01/M13 A3036 RMK AO2 SLP289 T00061128

Hora: 17:40 (22:40 UTC)

Pronòstic

L'informe es va fer fa 5 hores i 14 minuts, a les 17:26 UTC
Pronòstic vàlid del 13 a les 18 UTC al 14 a les 18 UTC
Vent 3 kt amb direcció variable
Visibilitat: 10 km
Cel clar
A partir de les 14 a les 1500 UTC
Vent 7 kt del Sud/Sud-Oest
Visibilitat: 10 km
Cel ennuvolat a una alçada de 25000 ft

TAF: KLYH 131726Z 1318/1418 VRB03KT P6SM SKC FM141500 21007KT P6SM BKN250

Observacions i pronòstics meteorològics de més de 4000 aeroports (METAR i TAF).

Les estacions disponibles són els punts grocs i vermells al mapa.

Posi el ratolí al punt desitjat per veure el nom de l'estació.

Feu clic per veure les observacions i els pronòstics meteorològics.

Per canviar el mapa: feu clic els botons verds amb una creu de color negre per apropar; al botó verd amb un guió per allunyar la imatge; o en les fletxes verdes per a mapes adjacents.


METAR-TAF: